sensor_id;sensor_type;location;lat;lon;timestamp;temperature;humidity
58513;DHT22;44302;47.914;10.642;2022-09-09T00:04:41;14.70;99.90
58513;DHT22;44302;47.914;10.642;2022-09-09T00:13:12;14.70;99.90
58513;DHT22;44302;47.914;10.642;2022-09-09T00:15:56;14.70;99.90
58513;DHT22;44302;47.914;10.642;2022-09-09T00:21:14;14.60;99.90
58513;DHT22;44302;47.914;10.642;2022-09-09T00:23:48;14.60;99.90
58513;DHT22;44302;47.914;10.642;2022-09-09T00:26:24;14.60;99.90
58513;DHT22;44302;47.914;10.642;2022-09-09T00:31:25;14.50;99.90
58513;DHT22;44302;47.914;10.642;2022-09-09T00:33:52;14.50;99.90
58513;DHT22;44302;47.914;10.642;2022-09-09T00:36:21;14.50;99.90
58513;DHT22;44302;47.914;10.642;2022-09-09T00:38:57;14.40;99.90
58513;DHT22;44302;47.914;10.642;2022-09-09T00:44:01;14.30;99.90
58513;DHT22;44302;47.914;10.642;2022-09-09T00:49:52;14.30;99.90
58513;DHT22;44302;47.914;10.642;2022-09-09T00:55:48;14.30;99.90
58513;DHT22;44302;47.914;10.642;2022-09-09T00:58:14;14.40;99.90
58513;DHT22;44302;47.914;10.642;2022-09-09T01:00:50;14.40;99.90
58513;DHT22;44302;47.914;10.642;2022-09-09T01:03:52;14.40;99.90
58513;DHT22;44302;47.914;10.642;2022-09-09T01:06:31;14.40;99.90
58513;DHT22;44302;47.914;10.642;2022-09-09T01:12:23;14.40;99.90
58513;DHT22;44302;47.914;10.642;2022-09-09T01:14:52;14.40;99.90
58513;DHT22;44302;47.914;10.642;2022-09-09T01:17:36;14.40;99.90
58513;DHT22;44302;47.914;10.642;2022-09-09T01:20:14;14.40;99.90
58513;DHT22;44302;47.914;10.642;2022-09-09T01:27:54;14.40;99.90
58513;DHT22;44302;47.914;10.642;2022-09-09T01:30:21;14.40;99.90
58513;DHT22;44302;47.914;10.642;2022-09-09T01:32:50;14.40;99.90
58513;DHT22;44302;47.914;10.642;2022-09-09T01:38:24;14.40;99.90
58513;DHT22;44302;47.914;10.642;2022-09-09T01:40:51;14.40;99.90
58513;DHT22;44302;47.914;10.642;2022-09-09T01:43:23;14.40;99.90
58513;DHT22;44302;47.914;10.642;2022-09-09T01:45:53;14.30;99.90
58513;DHT22;44302;47.914;10.642;2022-09-09T01:48:21;14.30;99.90
58513;DHT22;44302;47.914;10.642;2022-09-09T01:50:48;14.30;99.90
58513;DHT22;44302;47.914;10.642;2022-09-09T01:53:14;14.30;99.90
58513;DHT22;44302;47.914;10.642;2022-09-09T01:55:49;14.30;99.90
58513;DHT22;44302;47.914;10.642;2022-09-09T02:03:57;14.10;99.90
58513;DHT22;44302;47.914;10.642;2022-09-09T02:06:37;14.20;99.90
58513;DHT22;44302;47.914;10.642;2022-09-09T02:09:05;14.20;99.90
58513;DHT22;44302;47.914;10.642;2022-09-09T02:11:32;14.20;99.90
58513;DHT22;44302;47.914;10.642;2022-09-09T02:14:10;14.20;99.90
58513;DHT22;44302;47.914;10.642;2022-09-09T02:16:53;14.20;99.90
58513;DHT22;44302;47.914;10.642;2022-09-09T02:19:46;14.20;99.90
58513;DHT22;44302;47.914;10.642;2022-09-09T02:22:16;14.30;99.90
58513;DHT22;44302;47.914;10.642;2022-09-09T02:24:43;14.30;99.90
58513;DHT22;44302;47.914;10.642;2022-09-09T02:27:12;14.30;99.90
58513;DHT22;44302;47.914;10.642;2022-09-09T02:29:41;14.30;99.90
58513;DHT22;44302;47.914;10.642;2022-09-09T02:32:11;14.30;99.90
58513;DHT22;44302;47.914;10.642;2022-09-09T02:34:42;14.30;99.90
58513;DHT22;44302;47.914;10.642;2022-09-09T02:37:09;14.30;99.90
58513;DHT22;44302;47.914;10.642;2022-09-09T02:39:36;14.30;99.90
58513;DHT22;44302;47.914;10.642;2022-09-09T02:42:03;14.20;99.90
58513;DHT22;44302;47.914;10.642;2022-09-09T02:44:29;14.20;99.90
58513;DHT22;44302;47.914;10.642;2022-09-09T06:05:02;14.90;99.90
58513;DHT22;44302;47.914;10.642;2022-09-09T06:07:28;15.00;99.90
58513;DHT22;44302;47.914;10.642;2022-09-09T06:09:54;15.10;99.90
58513;DHT22;44302;47.914;10.642;2022-09-09T06:12:19;15.20;99.90
58513;DHT22;44302;47.914;10.642;2022-09-09T06:14:46;15.30;99.90
58513;DHT22;44302;47.914;10.642;2022-09-09T06:17:11;15.40;99.90
58513;DHT22;44302;47.914;10.642;2022-09-09T06:19:37;15.50;99.90
58513;DHT22;44302;47.914;10.642;2022-09-09T06:22:03;15.50;99.90
58513;DHT22;44302;47.914;10.642;2022-09-09T06:24:28;15.60;99.90
58513;DHT22;44302;47.914;10.642;2022-09-09T06:26:55;15.70;99.90
58513;DHT22;44302;47.914;10.642;2022-09-09T06:29:22;15.70;99.90
58513;DHT22;44302;47.914;10.642;2022-09-09T06:31:48;15.70;99.90
58513;DHT22;44302;47.914;10.642;2022-09-09T06:36:40;15.80;99.90
58513;DHT22;44302;47.914;10.642;2022-09-09T06:39:07;15.80;99.90
58513;DHT22;44302;47.914;10.642;2022-09-09T06:41:34;15.80;99.90
58513;DHT22;44302;47.914;10.642;2022-09-09T06:43:59;15.80;99.90
58513;DHT22;44302;47.914;10.642;2022-09-09T06:46:28;15.80;99.90
58513;DHT22;44302;47.914;10.642;2022-09-09T06:48:56;15.80;99.90
58513;DHT22;44302;47.914;10.642;2022-09-09T06:51:32;15.90;99.90
58513;DHT22;44302;47.914;10.642;2022-09-09T06:54:00;15.90;99.90
58513;DHT22;44302;47.914;10.642;2022-09-09T06:56:29;15.90;99.90
58513;DHT22;44302;47.914;10.642;2022-09-09T06:58:57;15.90;99.90
58513;DHT22;44302;47.914;10.642;2022-09-09T07:01:37;15.80;99.90
58513;DHT22;44302;47.914;10.642;2022-09-09T07:04:04;15.80;99.90
58513;DHT22;44302;47.914;10.642;2022-09-09T07:06:35;15.80;99.90
58513;DHT22;44302;47.914;10.642;2022-09-09T07:09:03;15.80;99.90
58513;DHT22;44302;47.914;10.642;2022-09-09T07:11:32;15.80;99.90
58513;DHT22;44302;47.914;10.642;2022-09-09T07:13:59;15.80;99.90
58513;DHT22;44302;47.914;10.642;2022-09-09T07:16:25;15.80;99.90
58513;DHT22;44302;47.914;10.642;2022-09-09T07:18:53;15.80;99.90
58513;DHT22;44302;47.914;10.642;2022-09-09T07:21:27;15.90;99.90
58513;DHT22;44302;47.914;10.642;2022-09-09T07:23:52;16.00;99.90
58513;DHT22;44302;47.914;10.642;2022-09-09T07:26:21;16.10;99.90
58513;DHT22;44302;47.914;10.642;2022-09-09T07:28:48;16.10;99.90
58513;DHT22;44302;47.914;10.642;2022-09-09T07:31:20;16.10;99.90
58513;DHT22;44302;47.914;10.642;2022-09-09T07:33:47;16.20;99.90
58513;DHT22;44302;47.914;10.642;2022-09-09T07:36:21;16.20;99.90
58513;DHT22;44302;47.914;10.642;2022-09-09T07:38:53;16.20;99.90
58513;DHT22;44302;47.914;10.642;2022-09-09T07:41:22;16.20;99.90
58513;DHT22;44302;47.914;10.642;2022-09-09T07:43:49;16.20;99.90
58513;DHT22;44302;47.914;10.642;2022-09-09T07:46:17;16.20;99.90
58513;DHT22;44302;47.914;10.642;2022-09-09T07:48:53;16.30;99.90
58513;DHT22;44302;47.914;10.642;2022-09-09T07:51:29;16.30;99.90
58513;DHT22;44302;47.914;10.642;2022-09-09T07:54:04;16.30;99.90
58513;DHT22;44302;47.914;10.642;2022-09-09T07:56:31;16.30;99.90
58513;DHT22;44302;47.914;10.642;2022-09-09T07:58:57;16.20;99.90
58513;DHT22;44302;47.914;10.642;2022-09-09T08:01:27;16.20;99.90
58513;DHT22;44302;47.914;10.642;2022-09-09T08:06:31;16.20;99.90
58513;DHT22;44302;47.914;10.642;2022-09-09T08:08:59;16.20;99.90
58513;DHT22;44302;47.914;10.642;2022-09-09T08:11:26;16.30;99.90
58513;DHT22;44302;47.914;10.642;2022-09-09T08:13:52;16.30;99.90
58513;DHT22;44302;47.914;10.642;2022-09-09T08:16:23;16.30;99.90
58513;DHT22;44302;47.914;10.642;2022-09-09T08:18:50;16.30;99.90
58513;DHT22;44302;47.914;10.642;2022-09-09T08:21:24;16.30;99.90
58513;DHT22;44302;47.914;10.642;2022-09-09T08:23:51;16.30;99.90
58513;DHT22;44302;47.914;10.642;2022-09-09T08:26:20;16.20;99.90
58513;DHT22;44302;47.914;10.642;2022-09-09T08:28:48;16.20;99.90
58513;DHT22;44302;47.914;10.642;2022-09-09T08:31:21;16.20;99.90
58513;DHT22;44302;47.914;10.642;2022-09-09T08:33:47;16.10;99.90
58513;DHT22;44302;47.914;10.642;2022-09-09T08:36:17;16.10;99.90
58513;DHT22;44302;47.914;10.642;2022-09-09T08:38:46;16.20;99.90
58513;DHT22;44302;47.914;10.642;2022-09-09T08:46:46;16.30;99.90
58513;DHT22;44302;47.914;10.642;2022-09-09T08:52:18;16.30;99.90
58513;DHT22;44302;47.914;10.642;2022-09-09T08:54:46;16.30;99.90
58513;DHT22;44302;47.914;10.642;2022-09-09T08:57:24;16.30;99.90
58513;DHT22;44302;47.914;10.642;2022-09-09T08:59:54;16.20;99.90
58513;DHT22;44302;47.914;10.642;2022-09-09T09:02:42;16.30;99.90
58513;DHT22;44302;47.914;10.642;2022-09-09T09:08:10;16.40;99.90
58513;DHT22;44302;47.914;10.642;2022-09-09T09:10:57;16.40;99.90
58513;DHT22;44302;47.914;10.642;2022-09-09T09:13:52;16.40;99.90
58513;DHT22;44302;47.914;10.642;2022-09-09T09:19:11;16.40;99.90
58513;DHT22;44302;47.914;10.642;2022-09-09T09:21:57;16.50;99.90
58513;DHT22;44302;47.914;10.642;2022-09-09T09:24:34;16.50;99.90
58513;DHT22;44302;47.914;10.642;2022-09-09T09:27:14;16.40;99.90
58513;DHT22;44302;47.914;10.642;2022-09-09T09:29:40;16.30;99.90
58513;DHT22;44302;47.914;10.642;2022-09-09T09:32:12;16.30;99.90
58513;DHT22;44302;47.914;10.642;2022-09-09T09:34:39;16.30;99.90
58513;DHT22;44302;47.914;10.642;2022-09-09T09:37:28;16.20;99.90
58513;DHT22;44302;47.914;10.642;2022-09-09T09:46:25;16.10;99.90
58513;DHT22;44302;47.914;10.642;2022-09-09T09:48:58;16.10;99.90
58513;DHT22;44302;47.914;10.642;2022-09-09T09:51:26;16.20;99.90
58513;DHT22;44302;47.914;10.642;2022-09-09T09:53:52;16.20;99.90
58513;DHT22;44302;47.914;10.642;2022-09-09T09:56:26;16.30;99.90
58513;DHT22;44302;47.914;10.642;2022-09-09T09:58:54;16.30;99.90
58513;DHT22;44302;47.914;10.642;2022-09-09T10:01:28;16.30;99.90
58513;DHT22;44302;47.914;10.642;2022-09-09T10:06:32;16.40;99.90
58513;DHT22;44302;47.914;10.642;2022-09-09T10:08:59;16.30;99.90
58513;DHT22;44302;47.914;10.642;2022-09-09T10:11:41;16.30;99.90
58513;DHT22;44302;47.914;10.642;2022-09-09T10:16:57;16.20;99.90
58513;DHT22;44302;47.914;10.642;2022-09-09T10:19:32;16.20;99.90
58513;DHT22;44302;47.914;10.642;2022-09-09T10:22:26;16.10;99.90
58513;DHT22;44302;47.914;10.642;2022-09-09T10:31:11;15.80;99.90
58513;DHT22;44302;47.914;10.642;2022-09-09T10:33:55;15.70;99.90
58513;DHT22;44302;47.914;10.642;2022-09-09T10:36:24;15.80;99.90
58513;DHT22;44302;47.914;10.642;2022-09-09T10:39:06;15.70;99.90
58513;DHT22;44302;47.914;10.642;2022-09-09T10:47:20;15.90;99.90
58513;DHT22;44302;47.914;10.642;2022-09-09T10:50:18;16.00;99.90
58513;DHT22;44302;47.914;10.642;2022-09-09T10:53:08;16.10;99.90
58513;DHT22;44302;47.914;10.642;2022-09-09T10:55:56;16.20;99.90
58513;DHT22;44302;47.914;10.642;2022-09-09T11:00:55;16.20;99.90
58513;DHT22;44302;47.914;10.642;2022-09-09T11:03:25;16.20;99.90
58513;DHT22;44302;47.914;10.642;2022-09-09T11:05:57;16.20;99.90
58513;DHT22;44302;47.914;10.642;2022-09-09T11:08:27;16.20;99.90
58513;DHT22;44302;47.914;10.642;2022-09-09T11:18:55;16.40;99.90
58513;DHT22;44302;47.914;10.642;2022-09-09T11:21:29;16.60;99.90
58513;DHT22;44302;47.914;10.642;2022-09-09T11:24:00;16.60;99.90
58513;DHT22;44302;47.914;10.642;2022-09-09T11:26:36;16.90;99.90
58513;DHT22;44302;47.914;10.642;2022-09-09T11:44:41;17.00;99.90
58513;DHT22;44302;47.914;10.642;2022-09-09T11:47:30;16.90;99.90
58513;DHT22;44302;47.914;10.642;2022-09-09T11:52:47;16.80;99.90
58513;DHT22;44302;47.914;10.642;2022-09-09T11:55:33;16.80;99.90
58513;DHT22;44302;47.914;10.642;2022-09-09T11:58:00;16.90;99.90
58513;DHT22;44302;47.914;10.642;2022-09-09T12:03:06;16.90;99.90
58513;DHT22;44302;47.914;10.642;2022-09-09T12:05:52;17.00;99.90
58513;DHT22;44302;47.914;10.642;2022-09-09T12:08:26;17.10;99.90
58513;DHT22;44302;47.914;10.642;2022-09-09T12:10:58;17.30;99.90
58513;DHT22;44302;47.914;10.642;2022-09-09T12:13:26;17.30;99.90
58513;DHT22;44302;47.914;10.642;2022-09-09T12:15:55;17.40;99.90
58513;DHT22;44302;47.914;10.642;2022-09-09T12:21:25;18.40;99.90
58513;DHT22;44302;47.914;10.642;2022-09-09T12:24:09;18.70;99.90
58513;DHT22;44302;47.914;10.642;2022-09-09T12:26:43;21.10;99.90
58513;DHT22;44302;47.914;10.642;2022-09-09T12:31:55;22.00;99.90
58513;DHT22;44302;47.914;10.642;2022-09-09T12:37:41;21.50;99.90
58513;DHT22;44302;47.914;10.642;2022-09-09T12:40:28;20.20;99.90
58513;DHT22;44302;47.914;10.642;2022-09-09T12:42:55;20.20;99.90
58513;DHT22;44302;47.914;10.642;2022-09-09T12:45:23;19.70;99.90
58513;DHT22;44302;47.914;10.642;2022-09-09T12:48:09;19.50;99.90
58513;DHT22;44302;47.914;10.642;2022-09-09T12:50:43;19.60;99.90
58513;DHT22;44302;47.914;10.642;2022-09-09T12:53:15;19.60;99.90
58513;DHT22;44302;47.914;10.642;2022-09-09T12:56:07;19.70;99.90
58513;DHT22;44302;47.914;10.642;2022-09-09T12:58:35;19.80;99.90
58513;DHT22;44302;47.914;10.642;2022-09-09T13:01:02;19.90;99.90
58513;DHT22;44302;47.914;10.642;2022-09-09T13:03:42;19.90;99.90
58513;DHT22;44302;47.914;10.642;2022-09-09T13:06:18;20.20;99.90
58513;DHT22;44302;47.914;10.642;2022-09-09T13:08:45;20.60;99.90
58513;DHT22;44302;47.914;10.642;2022-09-09T13:11:15;21.50;99.90
58513;DHT22;44302;47.914;10.642;2022-09-09T13:13:42;21.60;99.90
58513;DHT22;44302;47.914;10.642;2022-09-09T13:16:25;22.00;99.90
58513;DHT22;44302;47.914;10.642;2022-09-09T13:18:52;22.00;99.90
58513;DHT22;44302;47.914;10.642;2022-09-09T13:21:18;21.90;99.90
58513;DHT22;44302;47.914;10.642;2022-09-09T13:23:49;21.60;99.90
58513;DHT22;44302;47.914;10.642;2022-09-09T13:26:26;20.90;99.90
58513;DHT22;44302;47.914;10.642;2022-09-09T13:28:53;20.40;99.90
58513;DHT22;44302;47.914;10.642;2022-09-09T13:31:22;19.50;99.90
58513;DHT22;44302;47.914;10.642;2022-09-09T13:33:48;19.30;99.90
58513;DHT22;44302;47.914;10.642;2022-09-09T13:36:14;19.00;99.90
58513;DHT22;44302;47.914;10.642;2022-09-09T13:41:22;18.20;99.90
58513;DHT22;44302;47.914;10.642;2022-09-09T13:43:49;18.20;99.90
58513;DHT22;44302;47.914;10.642;2022-09-09T13:46:40;18.10;99.90
58513;DHT22;44302;47.914;10.642;2022-09-09T13:51:42;18.60;99.90
58513;DHT22;44302;47.914;10.642;2022-09-09T13:54:10;19.40;99.90
58513;DHT22;44302;47.914;10.642;2022-09-09T13:56:38;20.40;99.90
58513;DHT22;44302;47.914;10.642;2022-09-09T13:59:05;21.40;99.90
58513;DHT22;44302;47.914;10.642;2022-09-09T14:01:31;21.00;99.90
58513;DHT22;44302;47.914;10.642;2022-09-09T14:03:58;20.70;99.90
58513;DHT22;44302;47.914;10.642;2022-09-09T14:06:24;20.10;99.90
58513;DHT22;44302;47.914;10.642;2022-09-09T14:08:50;19.40;99.90
58513;DHT22;44302;47.914;10.642;2022-09-09T14:11:17;19.00;99.90
58513;DHT22;44302;47.914;10.642;2022-09-09T14:18:35;19.10;99.90
58513;DHT22;44302;47.914;10.642;2022-09-09T14:21:02;19.10;99.90
58513;DHT22;44302;47.914;10.642;2022-09-09T14:23:28;19.10;99.90
58513;DHT22;44302;47.914;10.642;2022-09-09T14:30:47;19.30;99.90
58513;DHT22;44302;47.914;10.642;2022-09-09T14:33:15;19.60;99.90
58513;DHT22;44302;47.914;10.642;2022-09-09T14:38:08;19.50;99.90
58513;DHT22;44302;47.914;10.642;2022-09-09T14:40:35;20.30;99.90
58513;DHT22;44302;47.914;10.642;2022-09-09T14:45:28;20.80;99.90
58513;DHT22;44302;47.914;10.642;2022-09-09T14:50:20;23.40;99.90
58513;DHT22;44302;47.914;10.642;2022-09-09T14:55:15;23.90;99.90
58513;DHT22;44302;47.914;10.642;2022-09-09T14:57:41;23.30;99.90
58513;DHT22;44302;47.914;10.642;2022-09-09T15:00:09;23.20;99.90
58513;DHT22;44302;47.914;10.642;2022-09-09T15:02:36;23.50;99.90
58513;DHT22;44302;47.914;10.642;2022-09-09T15:05:02;23.70;99.90
58513;DHT22;44302;47.914;10.642;2022-09-09T15:07:28;23.60;99.90
58513;DHT22;44302;47.914;10.642;2022-09-09T15:09:54;23.40;99.90
58513;DHT22;44302;47.914;10.642;2022-09-09T15:12:20;23.10;99.90
58513;DHT22;44302;47.914;10.642;2022-09-09T15:14:46;23.20;99.90
58513;DHT22;44302;47.914;10.642;2022-09-09T15:17:13;23.30;99.90
58513;DHT22;44302;47.914;10.642;2022-09-09T15:19:39;23.30;99.90
58513;DHT22;44302;47.914;10.642;2022-09-09T15:22:05;23.30;99.90
58513;DHT22;44302;47.914;10.642;2022-09-09T15:24:34;23.40;99.90
58513;DHT22;44302;47.914;10.642;2022-09-09T15:27:01;23.30;99.90
58513;DHT22;44302;47.914;10.642;2022-09-09T15:29:27;23.30;99.90
58513;DHT22;44302;47.914;10.642;2022-09-09T15:31:56;22.70;99.90
58513;DHT22;44302;47.914;10.642;2022-09-09T15:36:48;22.00;99.90
58513;DHT22;44302;47.914;10.642;2022-09-09T15:39:16;20.60;99.90
58513;DHT22;44302;47.914;10.642;2022-09-09T15:41:43;20.20;99.90
58513;DHT22;44302;47.914;10.642;2022-09-09T15:44:10;20.00;99.90
58513;DHT22;44302;47.914;10.642;2022-09-09T15:46:45;19.50;99.90
58513;DHT22;44302;47.914;10.642;2022-09-09T15:51:42;18.90;99.90
58513;DHT22;44302;47.914;10.642;2022-09-09T15:54:10;18.70;99.90
58513;DHT22;44302;47.914;10.642;2022-09-09T15:59:03;18.60;99.90
58513;DHT22;44302;47.914;10.642;2022-09-09T16:01:29;18.60;99.90
58513;DHT22;44302;47.914;10.642;2022-09-09T16:03:57;18.50;99.90
58513;DHT22;44302;47.914;10.642;2022-09-09T16:06:24;18.50;99.90
58513;DHT22;44302;47.914;10.642;2022-09-09T16:08:52;18.30;99.90
58513;DHT22;44302;47.914;10.642;2022-09-09T16:11:29;18.20;99.90
58513;DHT22;44302;47.914;10.642;2022-09-09T16:13:56;18.20;99.90
58513;DHT22;44302;47.914;10.642;2022-09-09T16:16:24;18.10;99.90
58513;DHT22;44302;47.914;10.642;2022-09-09T16:18:52;18.00;99.90
58513;DHT22;44302;47.914;10.642;2022-09-09T16:21:24;18.00;99.90
58513;DHT22;44302;47.914;10.642;2022-09-09T16:23:51;18.00;99.90
58513;DHT22;44302;47.914;10.642;2022-09-09T16:26:19;17.90;99.90
58513;DHT22;44302;47.914;10.642;2022-09-09T16:28:45;17.90;99.90
58513;DHT22;44302;47.914;10.642;2022-09-09T16:31:17;17.80;99.90
58513;DHT22;44302;47.914;10.642;2022-09-09T16:33:45;17.80;99.90
58513;DHT22;44302;47.914;10.642;2022-09-09T16:36:13;17.70;99.90
58513;DHT22;44302;47.914;10.642;2022-09-09T16:38:39;17.70;99.90
58513;DHT22;44302;47.914;10.642;2022-09-09T16:41:06;17.60;99.90
58513;DHT22;44302;47.914;10.642;2022-09-09T16:43:33;17.60;99.90
58513;DHT22;44302;47.914;10.642;2022-09-09T16:46:00;17.60;99.90
58513;DHT22;44302;47.914;10.642;2022-09-09T16:48:33;17.60;99.90
58513;DHT22;44302;47.914;10.642;2022-09-09T16:51:07;17.60;99.90
58513;DHT22;44302;47.914;10.642;2022-09-09T16:53:34;17.60;99.90
58513;DHT22;44302;47.914;10.642;2022-09-09T16:56:07;17.50;99.90
58513;DHT22;44302;47.914;10.642;2022-09-09T16:58:32;17.50;99.90
58513;DHT22;44302;47.914;10.642;2022-09-09T17:01:02;17.50;99.90
58513;DHT22;44302;47.914;10.642;2022-09-09T17:03:29;17.40;99.90
58513;DHT22;44302;47.914;10.642;2022-09-09T17:05:55;17.30;99.90
58513;DHT22;44302;47.914;10.642;2022-09-09T17:08:23;17.30;99.90
58513;DHT22;44302;47.914;10.642;2022-09-09T17:10:49;17.20;99.90
58513;DHT22;44302;47.914;10.642;2022-09-09T17:13:15;17.10;99.90
58513;DHT22;44302;47.914;10.642;2022-09-09T17:15:45;17.00;99.90
58513;DHT22;44302;47.914;10.642;2022-09-09T17:18:12;17.00;99.90
58513;DHT22;44302;47.914;10.642;2022-09-09T17:20:39;16.90;99.90
58513;DHT22;44302;47.914;10.642;2022-09-09T17:23:06;16.90;99.90
58513;DHT22;44302;47.914;10.642;2022-09-09T17:25:32;16.90;99.90
58513;DHT22;44302;47.914;10.642;2022-09-09T17:27:58;16.90;99.90
58513;DHT22;44302;47.914;10.642;2022-09-09T17:30:24;16.70;99.90
58513;DHT22;44302;47.914;10.642;2022-09-09T17:32:50;16.70;99.90
58513;DHT22;44302;47.914;10.642;2022-09-09T17:35:15;16.70;99.90
58513;DHT22;44302;47.914;10.642;2022-09-09T17:37:41;16.60;99.90
58513;DHT22;44302;47.914;10.642;2022-09-09T17:40:07;16.60;99.90
58513;DHT22;44302;47.914;10.642;2022-09-09T17:42:34;16.50;99.90
58513;DHT22;44302;47.914;10.642;2022-09-09T17:45:00;16.40;99.90
58513;DHT22;44302;47.914;10.642;2022-09-09T17:47:26;16.40;99.90
58513;DHT22;44302;47.914;10.642;2022-09-09T17:52:20;16.30;99.90
58513;DHT22;44302;47.914;10.642;2022-09-09T17:54:46;16.30;99.90
58513;DHT22;44302;47.914;10.642;2022-09-09T17:59:38;16.30;99.90
58513;DHT22;44302;47.914;10.642;2022-09-09T18:06:57;16.10;99.90
58513;DHT22;44302;47.914;10.642;2022-09-09T18:09:25;16.10;99.90
58513;DHT22;44302;47.914;10.642;2022-09-09T18:11:53;16.00;99.90
58513;DHT22;44302;47.914;10.642;2022-09-09T18:14:25;16.00;99.90
58513;DHT22;44302;47.914;10.642;2022-09-09T18:16:51;15.90;99.90
58513;DHT22;44302;47.914;10.642;2022-09-09T18:19:20;15.90;99.90
58513;DHT22;44302;47.914;10.642;2022-09-09T18:21:47;15.80;99.90
58513;DHT22;44302;47.914;10.642;2022-09-09T18:24:15;15.80;99.90
58513;DHT22;44302;47.914;10.642;2022-09-09T18:26:42;15.70;99.90
58513;DHT22;44302;47.914;10.642;2022-09-09T18:29:15;15.60;99.90
58513;DHT22;44302;47.914;10.642;2022-09-09T18:31:41;15.50;99.90
58513;DHT22;44302;47.914;10.642;2022-09-09T18:34:09;15.50;99.90
58513;DHT22;44302;47.914;10.642;2022-09-09T18:36:42;15.40;99.90
58513;DHT22;44302;47.914;10.642;2022-09-09T18:39:10;15.40;99.90
58513;DHT22;44302;47.914;10.642;2022-09-09T18:41:39;15.30;99.90
58513;DHT22;44302;47.914;10.642;2022-09-09T18:44:11;15.20;99.90
58513;DHT22;44302;47.914;10.642;2022-09-09T18:46:38;15.20;99.90
58513;DHT22;44302;47.914;10.642;2022-09-09T18:49:04;15.20;99.90
58513;DHT22;44302;47.914;10.642;2022-09-09T18:51:31;15.10;99.90
58513;DHT22;44302;47.914;10.642;2022-09-09T18:54:06;15.00;99.90
58513;DHT22;44302;47.914;10.642;2022-09-09T18:56:34;15.10;99.90
58513;DHT22;44302;47.914;10.642;2022-09-09T18:59:02;15.10;99.90
58513;DHT22;44302;47.914;10.642;2022-09-09T19:01:29;15.00;99.90
58513;DHT22;44302;47.914;10.642;2022-09-09T19:03:55;14.90;99.90
58513;DHT22;44302;47.914;10.642;2022-09-09T19:06:27;14.90;99.90
58513;DHT22;44302;47.914;10.642;2022-09-09T19:08:55;14.90;99.90
58513;DHT22;44302;47.914;10.642;2022-09-09T19:11:23;14.90;99.90
58513;DHT22;44302;47.914;10.642;2022-09-09T19:14:00;14.90;99.90
58513;DHT22;44302;47.914;10.642;2022-09-09T19:16:28;14.80;99.90
58513;DHT22;44302;47.914;10.642;2022-09-09T19:18:56;14.70;99.90
58513;DHT22;44302;47.914;10.642;2022-09-09T19:21:30;14.60;99.90
58513;DHT22;44302;47.914;10.642;2022-09-09T19:24:00;14.50;99.90
58513;DHT22;44302;47.914;10.642;2022-09-09T19:26:34;14.50;99.90
58513;DHT22;44302;47.914;10.642;2022-09-09T19:29:06;14.40;99.90
58513;DHT22;44302;47.914;10.642;2022-09-09T19:31:31;14.30;99.90
58513;DHT22;44302;47.914;10.642;2022-09-09T19:33:58;14.40;99.90
58513;DHT22;44302;47.914;10.642;2022-09-09T19:36:25;14.30;99.90
58513;DHT22;44302;47.914;10.642;2022-09-09T19:38:55;14.30;99.90
58513;DHT22;44302;47.914;10.642;2022-09-09T19:41:23;14.30;99.90
58513;DHT22;44302;47.914;10.642;2022-09-09T19:43:51;14.30;99.90
58513;DHT22;44302;47.914;10.642;2022-09-09T19:46:16;14.20;99.90
58513;DHT22;44302;47.914;10.642;2022-09-09T19:48:45;14.10;99.90
58513;DHT22;44302;47.914;10.642;2022-09-09T19:51:12;14.10;99.90
58513;DHT22;44302;47.914;10.642;2022-09-09T19:53:41;14.10;99.90
58513;DHT22;44302;47.914;10.642;2022-09-09T19:56:07;14.10;99.90
58513;DHT22;44302;47.914;10.642;2022-09-09T19:58:38;14.20;99.90
58513;DHT22;44302;47.914;10.642;2022-09-09T20:01:17;14.20;99.90
58513;DHT22;44302;47.914;10.642;2022-09-09T20:03:45;14.30;99.90
58513;DHT22;44302;47.914;10.642;2022-09-09T20:06:14;14.30;99.90
58513;DHT22;44302;47.914;10.642;2022-09-09T20:08:42;14.30;99.90
58513;DHT22;44302;47.914;10.642;2022-09-09T20:11:08;14.40;99.90
58513;DHT22;44302;47.914;10.642;2022-09-09T20:13:35;14.40;99.90
58513;DHT22;44302;47.914;10.642;2022-09-09T20:16:14;14.50;99.90
58513;DHT22;44302;47.914;10.642;2022-09-09T20:18:42;14.50;99.90
58513;DHT22;44302;47.914;10.642;2022-09-09T20:21:15;14.50;99.90
58513;DHT22;44302;47.914;10.642;2022-09-09T20:23:42;14.50;99.90
58513;DHT22;44302;47.914;10.642;2022-09-09T20:26:10;14.20;99.90
58513;DHT22;44302;47.914;10.642;2022-09-09T20:28:38;14.10;99.90
58513;DHT22;44302;47.914;10.642;2022-09-09T20:31:06;13.70;99.90
58513;DHT22;44302;47.914;10.642;2022-09-09T20:33:33;13.70;99.90
58513;DHT22;44302;47.914;10.642;2022-09-09T20:36:11;13.60;99.90
58513;DHT22;44302;47.914;10.642;2022-09-09T20:38:57;13.50;99.90
58513;DHT22;44302;47.914;10.642;2022-09-09T20:41:26;13.30;99.90
58513;DHT22;44302;47.914;10.642;2022-09-09T20:43:55;13.30;99.90
58513;DHT22;44302;47.914;10.642;2022-09-09T20:46:23;13.20;99.90
58513;DHT22;44302;47.914;10.642;2022-09-09T20:48:50;13.20;99.90
58513;DHT22;44302;47.914;10.642;2022-09-09T20:51:17;13.20;99.90
58513;DHT22;44302;47.914;10.642;2022-09-09T20:53:44;13.20;99.90
58513;DHT22;44302;47.914;10.642;2022-09-09T20:56:11;13.10;99.90
58513;DHT22;44302;47.914;10.642;2022-09-09T20:58:37;13.00;99.90
58513;DHT22;44302;47.914;10.642;2022-09-09T21:01:04;12.80;99.90
58513;DHT22;44302;47.914;10.642;2022-09-09T21:03:32;12.80;99.90
58513;DHT22;44302;47.914;10.642;2022-09-09T21:06:03;12.70;99.90
58513;DHT22;44302;47.914;10.642;2022-09-09T21:08:29;12.70;99.90
58513;DHT22;44302;47.914;10.642;2022-09-09T21:10:55;12.60;99.90
58513;DHT22;44302;47.914;10.642;2022-09-09T21:13:22;12.60;99.90
58513;DHT22;44302;47.914;10.642;2022-09-09T21:15:49;12.50;99.90
58513;DHT22;44302;47.914;10.642;2022-09-09T21:18:16;12.50;99.90
58513;DHT22;44302;47.914;10.642;2022-09-09T21:20:43;12.40;99.90
58513;DHT22;44302;47.914;10.642;2022-09-09T21:23:10;12.40;99.90
58513;DHT22;44302;47.914;10.642;2022-09-09T21:25:36;12.30;99.90
58513;DHT22;44302;47.914;10.642;2022-09-09T21:28:03;12.20;99.90
58513;DHT22;44302;47.914;10.642;2022-09-09T21:30:31;12.00;99.90
58513;DHT22;44302;47.914;10.642;2022-09-09T21:32:57;12.00;99.90
58513;DHT22;44302;47.914;10.642;2022-09-09T21:35:22;12.00;99.90
58513;DHT22;44302;47.914;10.642;2022-09-09T21:40:14;11.90;99.90